If you wish to contribute or participate in the discussions about articles you are invited to join SKYbrary as a registered user

 Actions

Dole-Tavaux Airport

From SKYbrary Wiki

LFGJ /
Revision as of 20:15, 16 February 2015 by Timo.Kouwenhoven (talk | contribs) (LF Airports CSV import)
(diff) ← Older revision | Latest revision (diff) | Newer revision → (diff)
Airport
ICAO: LFGJ – IATA: DLE
Summary
Name Dole-Tavaux Airport
Region Europe
Territory France FR.gif
Location , Franche-Comte
Serving Dole
Elevation 196.596 m
645 ft
645 ft196.596 m
Type medium airport
Coordinates 47° 2' 20.45" N, 5° 25' 38.10" E
Runways
Designator Length Width Surface ROPS
5/23 2231 m7,319.554 ft
45 m147.638 ft
ASP yes/yes


METAR
Observation LFGJ 172330Z AUTO 19007KT CAVOK 14/13 Q1014
Station Dole Tavaux
Date/Time 17 October 2019 23:30:00
Wind direction 190°
Wind speed 07 kts
Lowest cloud amount clouds and visibility OK
Temperature 14°C
Dew point 13°C
Humidity 93%
QNH 1014 hPa
Weather condition n/a